Du Quoin, Illinois
Current Conditions -  °F | °C
As of 10:52 PM on Wednesday 17 Dec 2014 (Local Time) from KMDH Reporting Station
Overcast Overcast  
Wind Chill: 27°   Ceiling: 9500
Heat Index: 33°   Visibility: 10mi
Dew Point: 26°   Wind: 7mph
Humidity: 75%   Direction: 70°ENE
Pressure: 30.31"   Gusts: NA
Location:  38.01°N, 89.24°W
Report Text: KMDH 180452Z AUTO 07006KT 10SM OVC095 01/M03 A3031 RMK AO2 SLP266 T00061033
Loading
Personal Weather Stations






























Interactive Weather Map New forecast layout! Learn more

10-Day Weather Forecast

Advertisements
Track Severe Weather on mobile